NCAR-RAP Real-Time Weather Data

Output produced by METARs form (08 May 2021  01:16 UTC)
found at http://weather.rap.ucar.edu/surface/
 
KFPR 080053Z AUTO 00000KT 10SM CLR 19/13 A3001 RMK AO2 SLP161 T01940128
KFPR 072353Z 07004KT 10SM CLR 23/13 A3000 RMK AO2 SLP157 T02330128 10289 20233 53011
KFPR 072253Z 05006KT 10SM CLR 25/13 A2997 RMK AO2 SLP149 T02500128
KFPR 072153Z 05006KT 10SM CLR 26/13 A2996 RMK AO2 SLP146 T02610133
KFPR 072053Z 06009KT 10SM CLR 26/13 A2996 RMK AO2 SLP146 T02610133 56016
KFPR 071953Z 04010G16KT 10SM CLR 27/14 A2997 RMK AO2 SLP150 T02670144
KFPR 071853Z 01008KT 10SM SCT050 27/15 A2999 RMK AO2 SLP155 T02720150
KFPR 071753Z 04008G15KT 10SM SCT048 27/15 A3001 RMK AO2 SLP162 T02720150 10283 20233 58005
KFPR 071653Z 04007KT 10SM BKN047 26/15 A3002 RMK AO2 SLP164 T02610150
KFPR 071553Z 32007KT 10SM SCT039 BKN049 28/17 A3003 RMK AO2 SLP169 T02780167
KFPR 071453Z 33009KT 10SM SCT029 SCT036 26/18 A3002 RMK AO2 SLP166 T02610183 53007
KFPR 071401Z 32007KT 10SM SCT019 BKN029 26/19 A3002 RMK AO2 T02560194
KFPR 071353Z 32010KT 10SM FEW019 SCT029 26/19 A3002 RMK AO2 SLP164 T02560194
KFPR 071345Z 31010KT 10SM FEW019 SCT029 26/20 A3001 RMK AO2 T02610200
KFPR 071312Z 32008KT 10SM BKN017 26/20 A3001 RMK AO2 T02560200
KFPR 071253Z 31007KT 10SM SCT013 SCT036 24/20 A3001 RMK AO2 SLP161 T02440200
KFPR 071153Z 30005KT 10SM CLR 23/21 A3000 RMK AO2 SLP159 70014 T02330211 10233 20211 53017
KFPR 071112Z 29004KT 8SM SCT030 22/21 A2999 RMK AO2 T02170206
KFPR 071053Z 29005KT 8SM BKN026 22/20 A2999 RMK AO2 SLP154 T02170200
KFPR 071044Z 28006KT 9SM BKN024 22/20 A2998 RMK AO2 T02170200
KFPR 070953Z AUTO 27006KT 9SM CLR 22/20 A2997 RMK AO2 SLP146 T02170200